Observations from the automatic weather station at Hillarys Point Boat Harbour are currently unavailable. Please use observations from Swanbourne.

Latest Weather Observations for Hillarys Point Boat Harbour

IDW60801

Issued at 7:32 pm WST Tuesday 18 June 2024 (issued every 10 minutes, with the page automatically refreshed every 10 minutes)

About weather observations | Map of weather stations | Latest weather observations for WA | Other Formats
Station Details ID: 009265 Name: HILLARYS BOAT HARBOUR NTC AWS Lat: -31.83 Lon: 115.74 Height: 0.0 m
Data from the previous 72 hours. | See also: Recent months for locations in Western Australia
Date/Time
WST
Temp
°C
App
Temp
°C
Dew
Point
°C
Rel
Hum
%
Delta-T
°C
Wind Press
QNH
hPa
Press
MSL
hPa
Rain since
9am
mm
Dir  Spd
km/h
Gust
km/h
Spd
kts
Gust
kts
18/07:30pm 16.2 - - - - SSE 11 17 6 9 1024.2 1024.2 -
18/07:00pm 16.0 - - - - SE 7 15 4 8 1023.7 1023.7 -
18/06:30pm 16.2 - - - - SSE 9 17 5 9 1023.4 1023.4 -
18/06:00pm 16.8 - - - - SSE 15 26 8 14 1023.0 1023.0 -
18/05:30pm 17.8 - - - - S 9 20 5 11 1022.7 1022.7 -
18/05:00pm 17.6 - - - - S 13 26 7 14 1022.3 1022.3 -
18/04:30pm 17.5 - - - - S 13 24 7 13 1022.0 1022.0 -
18/04:00pm 17.4 - - - - S 9 22 5 12 1021.8 1021.8 -
18/03:30pm 17.1 - - - - SSE 13 24 7 13 1021.5 1021.5 -
18/03:00pm 16.8 - - - - S 11 28 6 15 1021.3 1021.3 -
18/02:30pm 17.4 - - - - S 11 26 6 14 1021.1 1021.1 -
18/02:00pm 17.1 - - - - S 13 28 7 15 1020.9 1020.9 -
18/01:30pm 15.9 - - - - S 9 17 5 9 1021.1 1021.1 -
18/01:00pm 17.5 - - - - SW 11 33 6 18 1021.0 1021.0 -
18/12:30pm 16.2 - - - - SSE 6 11 3 6 1021.5 1021.5 -
18/12:00pm 16.4 - - - - SSW 15 41 8 22 1021.5 1021.5 -
18/11:30am 18.8 - - - - NNW 4 6 2 3 1021.7 1021.7 -
18/11:00am 17.6 - - - - NNW 6 9 3 5 1021.9 1021.9 -
18/10:30am 18.0 - - - - N 4 9 2 5 1021.9 1021.9 -
18/10:00am 17.1 - - - - NE 6 9 3 5 1022.0 1022.0 -
18/09:30am 16.2 - - - - NE 6 7 3 4 1021.9 1021.9 -
18/09:00am 15.1 - - - - NE 6 9 3 5 1021.8 1021.8 -
18/08:30am 14.2 - - - - NNE 6 11 3 6 1021.9 1021.9 -
18/08:00am 13.5 - - - - NE 4 7 2 4 1021.5 1021.5 -
18/07:30am 13.2 - - - - NE 6 7 3 4 1021.2 1021.2 -
18/07:00am 13.8 - - - - N 4 6 2 3 1021.2 1021.2 -
18/06:30am 14.5 - - - - NNE 6 9 3 5 1020.9 1020.9 -
18/06:00am 13.6 - - - - NE 6 9 3 5 1020.3 1020.3 -
18/05:30am 13.6 - - - - NE 4 6 2 3 1020.2 1020.2 -
18/05:00am 13.6 - - - - NE 4 7 2 4 1019.7 1019.7 -
18/04:30am 13.8 - - - - ENE 4 9 2 5 1019.6 1019.6 -
18/04:00am 13.9 - - - - ESE 4 9 2 5 1019.6 1019.6 -
18/03:30am 13.5 - - - - ESE 2 6 1 3 1019.6 1019.6 -
18/03:00am 12.7 - - - - ENE 7 9 4 5 1019.2 1019.2 -
18/02:30am 13.0 - - - - ENE 7 11 4 6 1019.4 1019.4 -
18/02:00am 13.5 - - - - ENE 7 11 4 6 1019.5 1019.5 -
18/01:30am 14.1 - - - - ENE 7 11 4 6 1019.3 1019.3 -
18/01:00am 14.3 - - - - ENE 4 6 2 3 1019.7 1019.7 -
18/12:30am 15.1 - - - - E 2 6 1 3 1019.9 1019.9 -
18/12:00am 15.8 - - - - SSE 7 15 4 8 1020.2 1020.2 -
 
Date/Time
WST
Temp
°C
App
Temp
°C
Dew
Point
°C
Rel
Hum
%
Delta-T
°C
Wind Press
QNH
hPa
Press
MSL
hPa
Rain since
9am
mm
Dir  Spd
km/h
Gust
km/h
Spd
kts
Gust
kts
17/11:30pm 17.0 - - - - S 9 19 5 10 1020.1 1020.1 -
17/11:00pm 18.1 - - - - SW 19 26 10 14 1020.1 1020.1 -
17/10:30pm 18.6 - - - - SW 15 19 8 10 1020.1 1020.1 -
17/10:00pm 18.6 - - - - SW 15 20 8 11 1020.1 1020.1 -
17/09:30pm 18.6 - - - - WSW 15 24 8 13 1020.2 1020.2 -
17/09:00pm 18.6 - - - - SW 17 22 9 12 1020.3 1020.3 -
17/08:30pm 18.6 - - - - SW 13 20 7 11 1020.2 1020.2 -
17/08:00pm 18.6 - - - - SW 9 15 5 8 1020.2 1020.2 -
17/07:30pm 18.7 - - - - SW 11 17 6 9 1020.2 1020.2 -
17/07:00pm 18.7 - - - - WSW 13 19 7 10 1020.1 1020.1 -
17/06:30pm 18.8 - - - - WSW 13 19 7 10 1020.0 1020.0 -
17/06:00pm 18.4 - - - - W 7 13 4 7 1019.8 1019.8 -
17/05:30pm 18.1 - - - - WSW 4 6 2 3 1019.6 1019.6 -
17/05:00pm 18.5 - - - - W 6 9 3 5 1019.4 1019.4 -
17/04:30pm 18.6 - - - - NW 4 6 2 3 1019.3 1019.3 -
17/04:00pm 18.8 - - - - WNW 4 7 2 4 1019.2 1019.2 -
17/03:30pm 18.6 - - - - NNW 6 9 3 5 1019.1 1019.1 -
17/03:00pm 18.8 - - - - NW 4 7 2 4 1019.0 1019.0 -
17/02:30pm 18.7 - - - - WNW 4 9 2 5 1019.0 1019.0 -
17/02:00pm 18.3 - - - - WNW 6 11 3 6 1018.8 1018.8 -
17/01:30pm 18.1 - - - - W 9 17 5 9 1018.8 1018.8 -
17/01:00pm 18.2 - - - - W 7 11 4 6 1019.0 1019.0 -
17/12:30pm 18.3 - - - - WSW 6 7 3 4 1019.1 1019.1 -
17/12:00pm 18.7 - - - - SSW 4 7 2 4 1019.4 1019.4 -
17/11:30am 18.6 - - - - SSE 2 7 1 4 1020.0 1020.0 -
17/11:00am 17.9 - - - - S 4 7 2 4 1020.3 1020.3 -
17/10:30am 18.1 - - - - SSE 2 6 1 3 1020.5 1020.5 -
17/10:00am 17.3 - - - - ENE 6 9 3 5 1020.4 1020.4 -
17/09:30am 16.1 - - - - NE 6 7 3 4 1020.4 1020.4 -
17/09:00am 15.3 - - - - NE 2 7 1 4 1020.4 1020.4 -
17/08:30am 13.9 - - - - NE 4 7 2 4 1020.3 1020.3 -
17/08:00am 13.9 - - - - NNE 4 7 2 4 1020.3 1020.3 -
17/07:30am 13.7 - - - - ENE 4 7 2 4 1020.2 1020.2 -
17/07:00am 14.1 - - - - ENE 6 9 3 5 1019.8 1019.8 -
17/06:30am 14.8 - - - - E 4 7 2 4 1019.8 1019.8 -
17/06:00am 14.7 - - - - ENE 4 6 2 3 1019.5 1019.5 -
17/05:30am 14.4 - - - - SE 6 9 3 5 1019.6 1019.6 -
17/05:00am 14.3 - - - - NE 7 13 4 7 1019.0 1019.0 -
17/04:30am 14.3 - - - - NE 7 13 4 7 1018.9 1018.9 -
17/04:00am 14.3 - - - - ENE 9 15 5 8 1019.2 1019.2 -
17/03:30am 14.7 - - - - ENE 7 11 4 6 1019.3 1019.3 -
17/03:00am 14.6 - - - - ENE 7 11 4 6 1019.1 1019.1 -
17/02:30am 15.0 - - - - ENE 4 6 2 3 1019.1 1019.1 -
17/02:00am 15.2 - - - - ENE 6 9 3 5 1019.1 1019.1 -
17/01:30am 15.3 - - - - ENE 7 13 4 7 1019.2 1019.2 -
17/01:00am 15.1 - - - - ENE 6 9 3 5 1019.2 1019.2 -
17/12:30am 15.9 - - - - ENE 4 9 2 5 1019.2 1019.2 -
17/12:00am 16.0 - - - - E 2 9 1 5 1019.2 1019.2 -
 
Date/Time
WST
Temp
°C
App
Temp
°C
Dew
Point
°C
Rel
Hum
%
Delta-T
°C
Wind Press
QNH
hPa
Press
MSL
hPa
Rain since
9am
mm
Dir  Spd
km/h
Gust
km/h
Spd
kts
Gust
kts
16/11:30pm 16.1 - - - - E 2 9 1 5 1019.3 1019.3 -
16/11:00pm 16.2 - - - - SE 2 6 1 3 1019.3 1019.3 -
16/10:30pm 16.7 - - - - ENE 4 7 2 4 1019.1 1019.1 -
16/10:00pm 16.9 - - - - E 4 7 2 4 1019.5 1019.5 -
16/09:30pm 16.8 - - - - SE 4 11 2 6 1019.4 1019.4 -
16/09:00pm 17.6 - - - - S 6 13 3 7 1019.3 1019.3 -
16/08:30pm 17.7 - - - - SE 2 4 1 2 1019.0 1019.0 -
16/08:00pm 18.0 - - - - E 2 4 1 2 1018.8 1018.8 -
16/07:30pm 18.5 - - - - E 4 9 2 5 1018.7 1018.7 -
16/07:00pm 19.7 - - - - SSW 11 19 6 10 1018.5 1018.5 -
16/06:30pm 19.6 - - - - SSW 11 22 6 12 1018.3 1018.3 -
16/06:00pm 18.8 - - - - S 7 19 4 10 1018.0 1018.0 -
16/05:30pm 19.4 - - - - S 7 19 4 10 1017.7 1017.7 -
16/05:00pm 19.4 - - - - SSW 9 22 5 12 1017.4 1017.4 -
16/04:30pm 19.4 - - - - SSW 11 19 6 10 1017.1 1017.1 -
16/04:00pm 19.0 - - - - SW 22 33 12 18 1016.8 1016.8 -
16/03:30pm 19.2 - - - - S 6 9 3 5 1016.6 1016.6 -
16/03:00pm 19.0 - - - - SW 19 35 10 19 1016.3 1016.3 -
16/02:30pm 20.8 - - - - SSW 6 13 3 7 1015.9 1015.9 -
16/02:00pm 20.7 - - - - SW 7 13 4 7 1015.8 1015.8 -
16/01:30pm 20.2 - - - - W 2 6 1 3 1015.8 1015.8 -
16/01:00pm 19.5 - - - - NNW 7 13 4 7 1015.8 1015.8 -
16/12:30pm 18.3 - - - - NNW 11 17 6 9 1016.3 1016.3 -
16/12:00pm 19.0 - - - - NNW 11 17 6 9 1016.5 1016.5 -
16/11:30am 18.1 - - - - NNW 7 13 4 7 1016.8 1016.8 -
16/11:00am 17.1 - - - - NNW 11 22 6 12 1016.9 1016.9 -
16/10:30am 19.0 - - - - NNW 9 17 5 9 1016.7 1016.7 -
16/10:00am 17.8 - - - - NNE 7 11 4 6 1016.6 1016.6 -
16/09:30am 17.0 - - - - NNE 7 13 4 7 1016.7 1016.7 -
16/09:00am 15.8 - - - - NNE 9 15 5 8 1016.3 1016.3 -
16/08:30am 15.3 - - - - NNE 11 17 6 9 1016.0 1016.0 -
16/08:00am 14.1 - - - - NNE 11 19 6 10 1015.7 1015.7 -
16/07:30am 13.9 - - - - NNE 9 17 5 9 1015.4 1015.4 -
16/07:00am 13.9 - - - - NE 7 15 4 8 1015.2 1015.2 -
16/06:30am 14.1 - - - - NE 7 13 4 7 1014.9 1014.9 -
16/06:00am 14.0 - - - - NNE 9 15 5 8 1014.7 1014.7 -
16/05:30am 14.0 - - - - NNE 9 15 5 8 1014.6 1014.6 -
16/05:00am 14.2 - - - - NE 7 13 4 7 1014.3 1014.3 -
16/04:30am 14.5 - - - - NNE 7 15 4 8 1014.3 1014.3 -
16/04:00am 14.7 - - - - NNE 9 15 5 8 1014.2 1014.2 -
16/03:30am 14.7 - - - - NNE 9 17 5 9 1014.1 1014.1 -
16/03:00am 14.8 - - - - NNE 9 17 5 9 1014.1 1014.1 -
16/02:30am 14.6 - - - - NE 9 13 5 7 1014.0 1014.0 -
16/02:00am 14.8 - - - - NNE 7 13 4 7 1013.9 1013.9 -
16/01:30am 14.7 - - - - NE 6 9 3 5 1014.0 1014.0 -
16/01:00am 15.0 - - - - NNE 7 11 4 6 1014.0 1014.0 -
16/12:30am 14.9 - - - - NNE 7 11 4 6 1014.0 1014.0 -
16/12:00am 15.3 - - - - NNE 7 11 4 6 1013.9 1013.9 -
 
Date/Time
WST
Temp
°C
App
Temp
°C
Dew
Point
°C
Rel
Hum
%
Delta-T
°C
Wind Press
QNH
hPa
Press
MSL
hPa
Rain since
9am
mm
Dir  Spd
km/h
Gust
km/h
Spd
kts
Gust
kts
15/11:30pm 15.4 - - - - NNE 9 17 5 9 1014.2 1014.2 -
15/11:00pm 15.7 - - - - NNE 6 11 3 6 1014.3 1014.3 -
15/10:30pm 16.1 - - - - NNE 4 9 2 5 1014.3 1014.3 -
15/10:00pm 15.8 - - - - NE 4 7 2 4 1014.4 1014.4 -
15/09:30pm 15.7 - - - - NE 4 7 2 4 1014.3 1014.3 -
15/09:00pm 16.4 - - - - ENE 4 7 2 4 1014.0 1014.0 -
15/08:30pm 16.6 - - - - E 2 6 1 3 1014.1 1014.1 -
15/08:00pm 17.0 - - - - ENE 6 9 3 5 1013.9 1013.9 -

Other formats

Comma delimited format used in spreadsheet applications
http://www.bom.gov.au/fwo/IDW60801/IDW60801.95605.axf

JavaScript Object Notation format (JSON) in row-major order
http://www.bom.gov.au/fwo/IDW60801/IDW60801.95605.json

Data quality

Most of these data are generated automatically and are frequently updated. Quality checks on data are not normally performed. It is possible for incorrect values to appear. Refer to information at About Latest Weather Observations and please check the disclaimer before using these data.